Terminal Aerodrome Forecast
Issued by NWS

Home | Current Version | Previous Version | Text Only | Print | Product List | Glossary On
Versions: 1 2 3 4 5 6 7 8 9 10 11 12 13 14 15 16 17 18 19 20 21 22 23 24 25 26
405
FTUS43 KABR 230526 AAA
TAFPIR
TAF AMD
KPIR 230526Z 2305/2406 27009KT P6SM OVC015
     FM231000 VRB05KT 4SM BR OVC015
     FM232200 11012KT P6SM OVC025
     FM240300 08010KT P6SM OVC008=

USA.gov is the U.S. government's official web portal to all federal, state and local government web resources and services.